Nearby METAR Reports

 

KSJC - San Jose, California, USA
Distance from station: NO 14km
Uppdaterad: 2019-12-06 09:53
Delvis molnigt
Delvis molnigt
 Vind från ONO
Vind: ONO 7 km/h
Temperatur: 12°C
Daggpunkt: 10°C
Luftfuktighet: 88%
Barometer: 1017.3 hPa
Clouds: Delvis molnigt
Visibility: 16 km
Cloud details: Delvis molnigt 1676 m
2019/12/06 08:53 KSJC 060853Z AUTO 07004KT 10SM SCT055 12/10 A3004 RMK AO2 SLP173 T01220100 53002
KNUQ - Moffett Nas/Mtn, California, USA
Distance from station: N 14km
Uppdaterad: 2019-11-21 17:56
NOT Current

 
Barometer: 1011.2 hPa
2019/11/21 16:56 KNUQ 211656Z AUTO A2986 RMK AO2 SLP116 PWINO $
 
KPAO - Palo Alto, California, USA
Distance from station: NNV 23km
Uppdaterad: 2019-12-06 05:47
NOT Current
Genommulet
Genommulet
 Vind från calm
Vind: Vindstilla
Temperatur: 14°C
Daggpunkt: 12°C
Luftfuktighet: 88%
Barometer: 1017.6 hPa
Clouds: Genommulet
Visibility: 16 km
Cloud details: Genommulet 914 m
2019/12/06 04:47 KPAO 060447Z 00000KT 10SM OVC030 14/12 A3005
KRHV - San Jose/Reid, California, USA
Distance from station: ONO 19km
Uppdaterad: 2019-12-06 06:53
NOT Current
Övervägande molnigt
Övervägande molnigt
 Vind från calm
Vind: Vindstilla
Temperatur: 14°C
Daggpunkt: 11°C
Luftfuktighet: 82%
Barometer: 1017.6 hPa
Clouds: Övervägande molnigt
Visibility: 16 km
Cloud details: Few Clouds 457 m
Övervägande molnigt 1524 m
2019/12/06 05:53 KRHV 060553Z 00000KT 10SM FEW015 BKN050 14/11 A3005
 
KOAK - Oakland, California, USA
Distance from station: NNV 50km
Uppdaterad: 2019-12-06 09:53
Övervägande molnigt
Övervägande molnigt
 Vind från O
Vind: O 11 km/h
Temperatur: 14°C
Daggpunkt: 11°C
Luftfuktighet: 82%
Barometer: 1017.3 hPa
Clouds: Övervägande molnigt
Visibility: 16 km
Cloud details: Övervägande molnigt 1036 m
Övervägande molnigt 1524 m
2019/12/06 08:53 KOAK 060853Z 10006KT 10SM BKN034 BKN050 14/11 A3004 RMK AO2 SLP173 T01440106 51003
KSQL - San Carlos Airpo, California, USA
Distance from station: NV 34km
Uppdaterad: 2019-12-06 05:47
NOT Current
Övervägande molnigt
Övervägande molnigt
 Vind från varies
Vind: varies 6 km/h
Temperatur: 14°C
Daggpunkt: 12°C
Luftfuktighet: 88%
Barometer: 1017.3 hPa
Clouds: Övervägande molnigt
Visibility: 16 km
Cloud details: Övervägande molnigt 975 m
2019/12/06 04:47 KSQL 060447Z VRB03KT 10SM BKN032 14/12 A3004 RMK LAST
 
KSFO - San Francisco, California, USA
Distance from station: NV 49km
Uppdaterad: 2019-12-06 09:56
Övervägande molnigt
Övervägande molnigt
 Vind från calm
Vind: Vindstilla
Temperatur: 14°C
Daggpunkt: 11°C
Luftfuktighet: 82%
Barometer: 1017.3 hPa
Clouds: Övervägande molnigt
Visibility: 16 km
Cloud details: Few Clouds 945 m
Övervägande molnigt 1128 m
Övervägande molnigt 1463 m
2019/12/06 08:56 KSFO 060856Z 00000KT 10SM FEW031 BKN037 BKN048 14/11 A3004 RMK AO2 SLP171 T01440111 51004 $
KE16 - San Martin, California, USA
Distance from station: OSO 43km
Uppdaterad: 2019-11-14 10:35
NOT Current
Genommulet
Genommulet
 Vind från SO
Vind: SO 11 km/h
Temperatur: 12°C
Daggpunkt: 10°C
Luftfuktighet: 88%
Barometer: 1017.6 hPa
Clouds: Genommulet
Visibility: 16 km
Cloud details: Genommulet 427 m
2019/11/14 09:35 KE16 140935Z AUTO 13006KT 10SM OVC014 12/10 A3005 RMK AO2
 
KWVI - Watsonville, California, USA
Distance from station: SSO 44km
Uppdaterad: 2019-12-06 09:53
Delvis molnigt
Delvis molnigt
 Vind från N
Vind: N 6 km/h
Temperatur: 11°C
Daggpunkt: 10°C
Luftfuktighet: 94%
Barometer: 1017.9 hPa
Clouds: Delvis molnigt
Visibility: 16 km
Cloud details: Delvis molnigt 1463 m
2019/12/06 08:53 KWVI 060853Z AUTO 36003KT 10SM SCT048 11/10 A3006 RMK AO2 SLP178 T01110100 52003
KHAF - Half Moon Bay, California, USA
Distance from station: VNV 50km
Uppdaterad: 2019-12-06 09:55
Genommulet
Genommulet
 Vind från SSO
Vind: SSO 20 km/h
Temperatur: 14°C
Daggpunkt: 11°C
Luftfuktighet: 82%
Barometer: 1017.3 hPa
Clouds: Genommulet
Visibility: 16 km
Cloud details: Genommulet 945 m
2019/12/06 08:55 KHAF 060855Z AUTO 16011KT 10SM OVC031 14/11 A3004 RMK AO2
 
KHWD - Hayward, California, USA
Distance from station: N 44km
Uppdaterad: 2019-12-06 09:54
Genommulet
Genommulet
 Vind från OSO
Vind: OSO 9 km/h
Temperatur: 14°C
Daggpunkt: 11°C
Luftfuktighet: 82%
Barometer: 1017.3 hPa
Clouds: Genommulet
Visibility: 16 km
Cloud details: Genommulet 1524 m
2019/12/06 08:54 KHWD 060854Z 11005KT 10SM OVC050 14/11 A3004 RMK AO2 SLP182 T01390106 53004
KLVK - Livermore, California, USA
Distance from station: NNO 51km
Uppdaterad: 2019-12-06 09:53
Mist, Genommulet
Mist, Genommulet
 Vind från calm
Vind: Vindstilla
Temperatur: 12°C
Daggpunkt: 11°C
Luftfuktighet: 94%
Barometer: 1017.6 hPa
Summering: Mist
Clouds: Genommulet
Visibility: 10 km
Cloud details: Övervägande molnigt 1158 m
Genommulet 1524 m
2019/12/06 08:53 KLVK 060853Z AUTO 00000KT 6SM BR BKN038 OVC050 12/11 A3005 RMK AO2 SLP173 T01170106 53003